createdAt,value
2022-12-31T00:02:31.748Z,100410.56
2022-12-31T00:05:36.595Z,100416.41
2022-12-31T00:08:39.478Z,100429.84
2022-12-31T00:11:42.701Z,100417.19
2022-12-31T00:14:45.751Z,100420.37
2022-12-31T00:17:48.961Z,100421.94
2022-12-31T00:20:51.895Z,100418.31
2022-12-31T00:23:56.428Z,100415.94
2022-12-31T00:26:59.327Z,100423.06
2022-12-31T00:30:04.967Z,100425.91
2022-12-31T00:33:09.047Z,100430.16
2022-12-31T00:36:12.148Z,100435.38
2022-12-31T00:39:15.181Z,100434.25
2022-12-31T00:42:18.758Z,100442.66
2022-12-31T00:45:21.661Z,100440.59
2022-12-31T00:48:25.052Z,100431.25
2022-12-31T00:51:28.489Z,100437.56
2022-12-31T00:54:31.689Z,100435.84
2022-12-31T00:57:34.659Z,100440.72
2022-12-31T01:00:38.319Z,100446.91
2022-12-31T01:03:41.326Z,100458.28
2022-12-31T01:06:45.387Z,100457.50
2022-12-31T01:09:48.328Z,100456.56
2022-12-31T01:12:51.874Z,100457.66
2022-12-31T01:15:55.058Z,100470.47
2022-12-31T01:19:00.356Z,100474.13
2022-12-31T01:22:03.291Z,100487.22
2022-12-31T01:25:07.026Z,100484.53
2022-12-31T01:28:10.082Z,100479.50
2022-12-31T01:31:15.477Z,100489.91
2022-12-31T01:34:18.510Z,100479.16
2022-12-31T01:37:21.745Z,100475.84
2022-12-31T01:40:24.710Z,100476.63
2022-12-31T01:43:58.771Z,100483.28
2022-12-31T01:47:03.524Z,100484.69
2022-12-31T01:50:16.982Z,100480.91
2022-12-31T01:53:20.119Z,100473.63
2022-12-31T01:56:24.009Z,100478.69
2022-12-31T01:59:28.552Z,100481.84
2022-12-31T02:02:31.931Z,100482.34
2022-12-31T02:05:41.131Z,100486.75
2022-12-31T02:08:44.391Z,100480.28
2022-12-31T02:11:47.667Z,100489.13
2022-12-31T02:14:52.444Z,100491.03
2022-12-31T02:18:05.062Z,100495.44
2022-12-31T02:21:26.626Z,100501.78
2022-12-31T02:24:39.137Z,100498.75
2022-12-31T02:28:09.333Z,100501.44
2022-12-31T02:31:51.080Z,100498.63
2022-12-31T02:35:01.659Z,100491.03
2022-12-31T02:38:16.647Z,100479.50
2022-12-31T02:41:39.264Z,100493.72
2022-12-31T02:44:43.475Z,100486.44
2022-12-31T02:48:14.899Z,100475.53
2022-12-31T02:51:39.489Z,100494.66
2022-12-31T02:54:51.943Z,100486.75
2022-12-31T02:58:19.765Z,100476.16
2022-12-31T03:01:48.405Z,100479.31
2022-12-31T03:04:58.116Z,100481.37
2022-12-31T03:08:01.082Z,100481.69
2022-12-31T03:11:24.375Z,100485.50
2022-12-31T03:14:27.377Z,100475.53
2022-12-31T03:17:30.571Z,100478.69
2022-12-31T03:20:58.757Z,100474.13
2022-12-31T03:24:20.687Z,100493.88
2022-12-31T03:27:23.682Z,100505.41
2022-12-31T03:30:27.521Z,100500.38
2022-12-31T03:33:32.590Z,100497.19
2022-12-31T03:36:35.642Z,100498.13
2022-12-31T03:39:38.501Z,100504.13
2022-12-31T03:42:42.029Z,100490.25
2022-12-31T03:45:45.567Z,100479.94
2022-12-31T03:48:48.787Z,100479.31
2022-12-31T03:51:51.682Z,100474.56
2022-12-31T03:54:54.872Z,100473.78
2022-12-31T03:57:58.192Z,100470.63
2022-12-31T04:01:02.084Z,100475.97
2022-12-31T04:04:05.554Z,100476.78
2022-12-31T04:07:08.677Z,100498.56
2022-12-31T04:10:14.473Z,100512.28
2022-12-31T04:13:17.430Z,100503.28
2022-12-31T04:16:20.742Z,100502.78
2022-12-31T04:19:23.718Z,100516.44
2022-12-31T04:22:26.994Z,100515.59
2022-12-31T04:25:29.979Z,100522.06
2022-12-31T04:28:33.324Z,100538.66
2022-12-31T04:31:36.487Z,100535.00
2022-12-31T04:34:40.054Z,100535.63
2022-12-31T04:37:43.140Z,100544.78
2022-12-31T04:41:04.792Z,100548.87
2022-12-31T04:44:07.721Z,100549.00
2022-12-31T04:47:10.923Z,100554.72
2022-12-31T04:50:13.919Z,100556.78
2022-12-31T04:53:17.178Z,100548.75
2022-12-31T04:56:20.128Z,100549.69
2022-12-31T04:59:23.391Z,100552.56
2022-12-31T05:02:26.392Z,100546.25
2022-12-31T05:05:30.141Z,100553.41
2022-12-31T05:08:34.424Z,100565.41
2022-12-31T05:11:38.285Z,100573.31
2022-12-31T05:14:41.442Z,100571.47
2022-12-31T05:17:44.882Z,100564.84
2022-12-31T05:20:48.432Z,100579.03
2022-12-31T05:23:51.889Z,100580.91
2022-12-31T05:26:54.768Z,100582.00
2022-12-31T05:29:57.974Z,100581.06
2022-12-31T05:33:01.058Z,100581.72
2022-12-31T05:36:04.523Z,100580.94
2022-12-31T05:39:07.564Z,100600.16
2022-12-31T05:42:10.719Z,100600.03
2022-12-31T05:45:13.758Z,100611.75
2022-12-31T05:48:17.159Z,100619.19
2022-12-31T05:51:20.089Z,100624.41
2022-12-31T05:54:24.131Z,100625.94
2022-12-31T05:57:27.081Z,100618.72
2022-12-31T06:00:30.259Z,100616.28
2022-12-31T06:03:33.444Z,100616.94
2022-12-31T06:06:36.320Z,100616.81
2022-12-31T06:09:39.689Z,100623.31
2022-12-31T06:12:42.679Z,100619.03
2022-12-31T06:15:46.007Z,100618.41
2022-12-31T06:18:50.863Z,100616.84
2022-12-31T06:21:55.893Z,100616.97
2022-12-31T06:24:59.803Z,100623.56
2022-12-31T06:28:04.501Z,100619.50
2022-12-31T06:31:09.824Z,100615.06
2022-12-31T06:34:13.091Z,100617.94
2022-12-31T06:37:15.862Z,100620.41
2022-12-31T06:40:19.255Z,100609.56
2022-12-31T06:43:23.136Z,100617.19
2022-12-31T06:46:26.523Z,100613.84
2022-12-31T06:49:29.516Z,100621.75
2022-12-31T06:52:32.998Z,100616.53
2022-12-31T06:55:36.123Z,100624.94
2022-12-31T06:58:40.083Z,100631.56
2022-12-31T07:02:16.645Z,100618.66
2022-12-31T07:05:29.095Z,100620.84
2022-12-31T07:08:50.285Z,100615.47
2022-12-31T07:12:08.176Z,100626.25
2022-12-31T07:15:21.376Z,100616.13
2022-12-31T07:18:36.935Z,100617.06
2022-12-31T07:21:41.178Z,100627.81
2022-12-31T07:24:45.200Z,100634.97
2022-12-31T07:28:07.040Z,100636.25
2022-12-31T07:31:18.411Z,100635.31
2022-12-31T07:34:55.299Z,100653.66
2022-12-31T07:38:17.341Z,100665.38
2022-12-31T07:41:54.405Z,100664.44
2022-12-31T07:45:29.812Z,100660.63
2022-12-31T07:48:33.036Z,100664.75
2022-12-31T07:51:36.480Z,100666.50
2022-12-31T07:54:39.458Z,100663.94
2022-12-31T07:57:57.873Z,100681.22
2022-12-31T08:01:02.200Z,100690.41
2022-12-31T08:04:28.010Z,100682.16
2022-12-31T08:07:37.544Z,100682.78
2022-12-31T08:10:46.391Z,100688.00
2022-12-31T08:13:50.710Z,100694.03
2022-12-31T08:16:54.266Z,100709.25
2022-12-31T08:19:57.430Z,100718.25
2022-12-31T08:23:12.870Z,100730.16
2022-12-31T08:26:24.808Z,100733.00
2022-12-31T08:29:34.267Z,100737.75
2022-12-31T08:33:07.400Z,100738.69
2022-12-31T08:36:38.199Z,100741.56
2022-12-31T08:40:16.575Z,100743.44
2022-12-31T08:43:32.479Z,100749.16
2022-12-31T08:46:41.448Z,100754.22
2022-12-31T08:49:45.141Z,100755.03
2022-12-31T08:52:49.092Z,100745.19
2022-12-31T08:56:02.249Z,100747.09
2022-12-31T08:59:23.409Z,100764.34
2022-12-31T09:02:58.631Z,100751.03
2022-12-31T09:06:17.229Z,100748.00
2022-12-31T09:09:33.235Z,100758.00
2022-12-31T09:12:39.171Z,100754.03
2022-12-31T09:16:07.314Z,100737.88
2022-12-31T09:19:11.080Z,100715.75
2022-12-31T09:22:14.548Z,100705.56
2022-12-31T09:25:20.080Z,100694.25
2022-12-31T09:28:45.672Z,100693.22
2022-12-31T09:31:58.026Z,100680.41
2022-12-31T09:35:37.360Z,100677.63
2022-12-31T09:38:53.204Z,100674.75
2022-12-31T09:41:59.509Z,100668.47
2022-12-31T09:45:34.739Z,100674.75
2022-12-31T09:48:37.875Z,100673.47
2022-12-31T09:51:56.180Z,100676.50
2022-12-31T09:55:22.748Z,100675.78
2022-12-31T09:58:57.834Z,100680.34
2022-12-31T10:02:10.415Z,100680.19
2022-12-31T10:05:32.436Z,100691.25
2022-12-31T10:08:48.371Z,100678.97
2022-12-31T10:11:51.536Z,100674.16
2022-12-31T10:15:05.434Z,100680.47
2022-12-31T10:18:36.333Z,100681.97
2022-12-31T10:21:48.282Z,100683.56
2022-12-31T10:25:39.411Z,100687.97
2022-12-31T10:29:20.594Z,100683.47
2022-12-31T10:32:49.983Z,100679.12
2022-12-31T10:36:08.808Z,100686.88
2022-12-31T10:39:24.499Z,100685.69
2022-12-31T10:42:33.267Z,100693.66
2022-12-31T10:45:57.503Z,100679.47
2022-12-31T10:49:28.856Z,100667.56
2022-12-31T10:52:50.389Z,100672.03
2022-12-31T10:55:59.079Z,100670.87
2022-12-31T10:59:19.784Z,100674.34
2022-12-31T11:02:46.062Z,100667.19
2022-12-31T11:06:08.029Z,100666.81
2022-12-31T11:09:46.736Z,100678.78
2022-12-31T11:12:56.015Z,100667.69
2022-12-31T11:16:28.554Z,100672.53
2022-12-31T11:19:45.962Z,100673.09
2022-12-31T11:23:12.994Z,100677.16
2022-12-31T11:26:24.073Z,100674.59
2022-12-31T11:30:07.227Z,100674.72
2022-12-31T11:33:50.611Z,100675.28
2022-12-31T11:37:02.605Z,100685.69
2022-12-31T11:40:27.759Z,100691.06
2022-12-31T11:43:35.610Z,100685.56
2022-12-31T11:47:08.212Z,100684.31
2022-12-31T11:50:17.386Z,100679.06
2022-12-31T11:53:39.177Z,100663.81
2022-12-31T11:56:46.643Z,100662.59
2022-12-31T11:59:54.394Z,100664.72
2022-12-31T12:03:04.400Z,100667.78
2022-12-31T12:06:12.901Z,100653.75
2022-12-31T12:09:22.502Z,100642.97
2022-12-31T12:12:38.013Z,100652.09
2022-12-31T12:15:47.161Z,100663.47
2022-12-31T12:19:06.634Z,100664.50
2022-12-31T12:22:12.332Z,100647.13
2022-12-31T12:25:25.616Z,100661.00
2022-12-31T12:28:31.468Z,100660.06
2022-12-31T12:31:34.728Z,100660.44
2022-12-31T12:34:44.549Z,100658.44
2022-12-31T12:38:22.820Z,100666.06
2022-12-31T12:41:27.774Z,100667.09
2022-12-31T12:44:31.989Z,100653.22
2022-12-31T12:47:35.256Z,100659.81
2022-12-31T12:50:48.379Z,100670.00
2022-12-31T12:54:00.719Z,100665.34
2022-12-31T12:57:28.769Z,100668.91
2022-12-31T13:01:04.781Z,100670.91
2022-12-31T13:04:35.946Z,100665.66
2022-12-31T13:08:01.167Z,100653.75
2022-12-31T13:11:21.907Z,100649.81
2022-12-31T13:15:00.441Z,100645.50
2022-12-31T13:18:32.791Z,100644.88
2022-12-31T13:21:43.963Z,100643.19
2022-12-31T13:24:58.874Z,100638.31
2022-12-31T13:28:10.075Z,100646.66
2022-12-31T13:31:19.694Z,100649.12
2022-12-31T13:34:42.632Z,100650.72
2022-12-31T13:37:46.793Z,100661.16
2022-12-31T13:41:02.936Z,100657.63
2022-12-31T13:44:27.103Z,100651.19
2022-12-31T13:47:33.077Z,100660.22
2022-12-31T13:51:01.953Z,100676.19
2022-12-31T13:54:18.458Z,100674.87
2022-12-31T13:58:15.587Z,100663.75
2022-12-31T14:01:21.319Z,100665.81
2022-12-31T14:04:33.442Z,100658.09
2022-12-31T14:07:45.338Z,100663.41
2022-12-31T14:11:00.919Z,100654.72
2022-12-31T14:14:24.359Z,100665.09
2022-12-31T14:17:33.084Z,100665.41
2022-12-31T14:20:45.322Z,100675.44
2022-12-31T14:23:57.364Z,100671.56
2022-12-31T14:27:03.824Z,100678.88
2022-12-31T14:30:16.140Z,100665.72
2022-12-31T14:33:34.175Z,100676.34
2022-12-31T14:37:03.884Z,100669.09
2022-12-31T14:40:15.785Z,100661.31
2022-12-31T14:43:28.817Z,100667.69
2022-12-31T14:46:51.770Z,100674.59
2022-12-31T14:50:14.082Z,100680.81
2022-12-31T14:53:25.603Z,100683.22
2022-12-31T14:56:43.541Z,100691.28
2022-12-31T15:00:25.169Z,100688.31
2022-12-31T15:03:31.440Z,100688.09
2022-12-31T15:06:44.061Z,100692.97
2022-12-31T15:10:09.416Z,100706.56
2022-12-31T15:13:19.820Z,100704.94
2022-12-31T15:16:32.179Z,100713.62
2022-12-31T15:20:03.668Z,100714.53
2022-12-31T15:23:23.233Z,100707.91
2022-12-31T15:26:31.063Z,100709.38
2022-12-31T15:29:41.783Z,100715.59
2022-12-31T15:32:47.258Z,100707.09
2022-12-31T15:35:53.445Z,100713.44
2022-12-31T15:39:22.602Z,100696.19
2022-12-31T15:42:38.679Z,100694.81
2022-12-31T15:45:43.370Z,100702.38
2022-12-31T15:49:03.648Z,100714.72
2022-12-31T15:52:12.518Z,100719.38
2022-12-31T15:55:38.840Z,100709.69
2022-12-31T15:58:41.675Z,100710.50
2022-12-31T16:01:46.064Z,100713.22
2022-12-31T16:04:50.503Z,100711.28
2022-12-31T16:07:55.000Z,100715.34
2022-12-31T16:10:59.727Z,100716.94
2022-12-31T16:14:02.481Z,100718.50
2022-12-31T16:17:06.743Z,100716.94
2022-12-31T16:20:31.314Z,100726.06
2022-12-31T16:23:42.248Z,100732.50
2022-12-31T16:26:49.407Z,100716.94
2022-12-31T16:29:59.869Z,100713.75
2022-12-31T16:33:05.457Z,100710.63
2022-12-31T16:36:39.610Z,100705.00
2022-12-31T16:39:57.906Z,100722.69
2022-12-31T16:43:58.857Z,100727.19
2022-12-31T16:47:03.567Z,100717.84
2022-12-31T16:50:18.493Z,100709.94
2022-12-31T16:53:44.814Z,100717.50
2022-12-31T16:56:52.137Z,100729.28
2022-12-31T17:00:05.584Z,100726.69
2022-12-31T17:03:20.998Z,100738.41
2022-12-31T17:06:24.555Z,100742.81
2022-12-31T17:09:34.343Z,100748.09
2022-12-31T17:16:34.720Z,100734.56
2022-12-31T17:19:43.267Z,100734.12
2022-12-31T17:22:55.971Z,100736.94
2022-12-31T17:26:08.084Z,100737.50
2022-12-31T17:29:25.922Z,100739.66
2022-12-31T17:32:40.126Z,100724.87
2022-12-31T17:35:46.987Z,100728.37
2022-12-31T17:38:51.567Z,100713.69
2022-12-31T17:41:57.355Z,100707.75
2022-12-31T17:45:03.120Z,100716.41
2022-12-31T17:48:07.709Z,100709.31
2022-12-31T17:51:11.332Z,100716.06
2022-12-31T17:54:16.508Z,100717.38
2022-12-31T17:57:29.506Z,100725.34
2022-12-31T18:00:33.628Z,100724.19
2022-12-31T18:03:37.058Z,100730.62
2022-12-31T18:06:41.556Z,100728.37
2022-12-31T18:09:44.935Z,100739.75
2022-12-31T18:12:49.804Z,100740.00
2022-12-31T18:15:55.011Z,100746.84
2022-12-31T18:19:00.194Z,100745.72
2022-12-31T18:22:03.805Z,100744.69
2022-12-31T18:25:07.645Z,100747.97
2022-12-31T18:28:12.015Z,100755.41
2022-12-31T18:31:23.588Z,100749.41
2022-12-31T18:34:28.348Z,100761.56
2022-12-31T18:37:37.867Z,100747.94
2022-12-31T18:40:44.422Z,100762.06
2022-12-31T18:43:49.059Z,100759.69
2022-12-31T18:46:52.667Z,100759.69
2022-12-31T18:49:58.108Z,100759.69
2022-12-31T18:53:03.126Z,100766.78
2022-12-31T18:56:11.439Z,100757.88
2022-12-31T18:59:14.775Z,100758.22
2022-12-31T19:02:20.308Z,100762.50
2022-12-31T19:05:28.521Z,100761.25
2022-12-31T19:08:34.029Z,100760.78
2022-12-31T19:11:37.430Z,100768.59
2022-12-31T19:14:41.252Z,100753.00
2022-12-31T19:17:44.529Z,100748.63
2022-12-31T19:20:47.698Z,100754.25
2022-12-31T19:23:51.657Z,100747.00
2022-12-31T19:26:55.226Z,100748.28
2022-12-31T19:29:58.549Z,100744.16
2022-12-31T19:33:01.542Z,100736.34
2022-12-31T19:36:07.426Z,100737.22
2022-12-31T19:39:14.956Z,100733.91
2022-12-31T19:42:18.531Z,100723.12
2022-12-31T19:45:27.141Z,100723.88
2022-12-31T19:48:32.927Z,100721.78
2022-12-31T19:51:36.304Z,100723.59
2022-12-31T19:54:39.603Z,100730.00
2022-12-31T19:57:43.047Z,100735.56
2022-12-31T20:00:53.957Z,100735.84
2022-12-31T20:04:00.518Z,100742.19
2022-12-31T20:07:03.555Z,100744.88
2022-12-31T20:10:08.029Z,100739.22
2022-12-31T20:13:11.030Z,100732.44
2022-12-31T20:16:17.277Z,100739.66
2022-12-31T20:19:20.299Z,100725.78
2022-12-31T20:22:23.771Z,100732.00
2022-12-31T20:25:26.757Z,100733.25
2022-12-31T20:28:31.763Z,100725.59
2022-12-31T20:31:35.720Z,100722.13
2022-12-31T20:34:39.069Z,100716.16
2022-12-31T20:37:42.340Z,100715.41
2022-12-31T20:40:47.164Z,100714.03
2022-12-31T20:43:51.058Z,100714.63
2022-12-31T20:46:55.120Z,100712.44
2022-12-31T20:50:13.392Z,100708.19
2022-12-31T20:53:16.965Z,100719.00
2022-12-31T20:56:21.304Z,100726.00
2022-12-31T20:59:25.948Z,100721.72
2022-12-31T21:02:40.970Z,100731.38
2022-12-31T21:05:53.427Z,100738.09
2022-12-31T21:08:57.942Z,100741.00
2022-12-31T21:12:20.186Z,100743.00
2022-12-31T21:15:23.267Z,100745.56
2022-12-31T21:18:26.784Z,100758.81
2022-12-31T21:21:30.113Z,100752.03
2022-12-31T21:24:33.358Z,100754.06
2022-12-31T21:27:36.254Z,100753.22
2022-12-31T21:30:40.440Z,100746.66
2022-12-31T21:33:47.365Z,100745.87
2022-12-31T21:36:50.630Z,100756.69
2022-12-31T21:39:54.023Z,100758.53
2022-12-31T21:42:57.506Z,100762.03
2022-12-31T21:46:05.368Z,100764.34
2022-12-31T21:49:08.915Z,100759.69
2022-12-31T21:52:32.409Z,100759.97
2022-12-31T21:55:57.332Z,100769.22
2022-12-31T21:59:18.828Z,100778.53
2022-12-31T22:02:41.352Z,100770.19
2022-12-31T22:06:12.622Z,100766.59
2022-12-31T22:09:15.695Z,100767.16
2022-12-31T22:12:19.203Z,100766.78
2022-12-31T22:15:22.104Z,100755.22
2022-12-31T22:18:25.829Z,100750.75
2022-12-31T22:21:28.947Z,100748.72
2022-12-31T22:24:32.255Z,100751.63
2022-12-31T22:27:36.507Z,100758.28
2022-12-31T22:30:39.957Z,100761.22
2022-12-31T22:33:44.171Z,100773.59
2022-12-31T22:36:48.516Z,100769.47
2022-12-31T22:39:51.314Z,100769.59
2022-12-31T22:42:55.479Z,100765.87
2022-12-31T22:45:58.703Z,100763.19
2022-12-31T22:49:03.499Z,100754.66
2022-12-31T22:52:08.792Z,100753.66
2022-12-31T22:55:12.290Z,100743.97
2022-12-31T22:58:15.405Z,100749.84
2022-12-31T23:01:25.525Z,100748.34
2022-12-31T23:04:28.749Z,100744.44
2022-12-31T23:07:32.256Z,100743.50
2022-12-31T23:10:55.018Z,100745.87
2022-12-31T23:14:16.882Z,100742.19
2022-12-31T23:17:41.592Z,100738.47
2022-12-31T23:21:03.664Z,100738.59
2022-12-31T23:24:11.296Z,100736.47
2022-12-31T23:27:19.206Z,100739.22
2022-12-31T23:30:22.145Z,100745.94
2022-12-31T23:33:26.524Z,100749.31
2022-12-31T23:36:29.627Z,100749.69
2022-12-31T23:39:33.030Z,100749.97
2022-12-31T23:42:35.996Z,100752.19
2022-12-31T23:45:39.449Z,100745.25
2022-12-31T23:48:43.156Z,100741.63
2022-12-31T23:51:46.132Z,100744.84
2022-12-31T23:54:48.789Z,100749.47
2022-12-31T23:57:51.867Z,100751.41
